Time;durP1;ratioP1;P1;durP2;ratioP2;P2;SDS_P1;SDS_P2;PMS_P1;PMS_P2;Temp;Humidity;BMP_temperature;BMP_pressure;BME280_temperature;BME280_humidity;BME280_pressure;Samples;Min_cycle;Max_cycle;Signal;HPM_P1;HPM_P2
2022/03/24 00:01:41;;;;;;;49.25;39.67;;;8.00;99.90;;;;;;5054953;28;20041;-80
2022/03/24 00:04:07;;;;;;;55.65;42.40;;;7.90;99.90;;;;;;5042392;28;20496;-80
2022/03/24 00:06:33;;;;;;;53.33;40.80;;;7.90;99.90;;;;;;5066802;28;20097;-80
2022/03/24 00:08:59;;;;;;;54.22;40.92;;;7.90;99.90;;;;;;5061993;28;20063;-79
2022/03/24 00:11:24;;;;;;;48.97;38.58;;;7.90;99.90;;;;;;5054957;28;20477;-79
2022/03/24 00:13:50;;;;;;;50.25;39.53;;;7.90;99.90;;;;;;5064504;28;20052;-79
2022/03/24 00:16:18;;;;;;;48.55;39.20;;;9.40;99.90;;;;;;5053524;28;20338;-80
2022/03/24 00:18:46;;;;;;;47.70;39.08;;;7.80;99.90;;;;;;5058852;28;20048;-80
2022/03/24 00:21:13;;;;;;;48.75;40.45;;;7.80;99.90;;;;;;5038443;28;20044;-80
2022/03/24 00:23:39;;;;;;;50.78;39.83;;;7.80;99.90;;;;;;5054444;28;20055;-80
2022/03/24 00:26:04;;;;;;;48.35;40.88;;;7.70;99.90;;;;;;5061821;28;20048;-79
2022/03/24 00:28:33;;;;;;;52.38;41.42;;;7.70;99.90;;;;;;5060814;28;20043;-80
2022/03/24 00:30:59;;;;;;;52.25;41.15;;;7.70;99.90;;;;;;5055215;28;20044;-80
2022/03/24 00:33:25;;;;;;;54.90;42.67;;;7.60;99.90;;;;;;5060519;28;20126;-80
2022/03/24 00:35:51;;;;;;;54.55;41.42;;;7.60;99.90;;;;;;5058800;28;20458;-81
2022/03/24 00:38:17;;;;;;;51.05;40.50;;;7.50;99.90;;;;;;5071249;28;20127;-80
2022/03/24 00:40:43;;;;;;;55.10;43.25;;;7.50;99.90;;;;;;5066498;28;20336;-80
2022/03/24 00:43:10;;;;;;;60.88;43.38;;;7.50;99.90;;;;;;5061853;28;20040;-79
2022/03/24 00:45:36;;;;;;;59.35;42.22;;;7.40;99.90;;;;;;5062363;28;20036;-80
2022/03/24 00:48:02;;;;;;;55.33;41.55;;;7.40;99.90;;;;;;5042563;28;20036;-80
2022/03/24 00:50:28;;;;;;;58.75;43.60;;;7.40;99.90;;;;;;5066418;28;20534;-80
2022/03/24 00:52:54;;;;;;;56.40;41.80;;;7.30;99.90;;;;;;5041295;28;20037;-80
2022/03/24 00:55:20;;;;;;;49.35;41.03;;;8.40;99.90;;;;;;5061768;28;20413;-80
2022/03/24 00:57:51;;;;;;;53.78;42.67;;;7.40;99.90;;;;;;5045489;28;20047;-81
2022/03/24 01:00:20;;;;;;;57.53;43.28;;;7.40;99.90;;;;;;5058053;28;20119;-80
2022/03/24 01:02:51;;;;;;;46.33;39.42;;;7.40;99.90;;;;;;5057953;28;20056;-80
2022/03/24 01:05:18;;;;;;;52.53;41.63;;;7.50;99.90;;;;;;5061935;28;20102;-79
2022/03/24 01:07:45;;;;;;;54.42;43.05;;;7.50;99.90;;;;;;5063846;28;20040;-79
2022/03/24 01:10:13;;;;;;;53.97;43.75;;;9.10;99.90;;;;;;5057236;28;20037;-79
2022/03/24 01:12:42;;;;;;;57.85;43.65;;;7.60;99.90;;;;;;5055997;28;20508;-79
2022/03/24 01:15:09;;;;;;;60.75;44.88;;;7.40;99.90;;;;;;5067533;28;20044;-78
2022/03/24 01:17:35;;;;;;;58.00;44.78;;;7.60;99.90;;;;;;5070110;28;20075;-79
2022/03/24 01:20:03;;;;;;;59.35;45.40;;;7.50;99.90;;;;;;5060209;28;20076;-80
2022/03/24 01:22:28;;;;;;;53.08;43.05;;;7.50;99.90;;;;;;5066631;28;20087;-79
2022/03/24 01:24:55;;;;;;;57.80;45.97;;;7.40;99.90;;;;;;5067947;28;20044;-78
2022/03/24 01:27:25;;;;;;;55.47;45.20;;;7.40;99.90;;;;;;5063575;28;20044;-79
2022/03/24 01:29:51;;;;;;;56.70;44.58;;;7.40;99.90;;;;;;5062785;28;20040;-79
2022/03/24 01:32:18;;;;;;;58.45;45.13;;;7.40;99.90;;;;;;5053180;28;21419;-79
2022/03/24 01:34:44;;;;;;;58.85;44.42;;;7.30;99.90;;;;;;5044361;28;20045;-79
2022/03/24 01:37:11;;;;;;;59.50;45.03;;;7.20;99.90;;;;;;5044155;28;20036;-79
2022/03/24 01:39:37;;;;;;;54.95;44.97;;;7.20;99.90;;;;;;5045589;28;20048;-80
2022/03/24 01:42:05;;;;;;;53.97;43.08;;;7.20;99.90;;;;;;5060610;28;20323;-79
2022/03/24 01:44:31;;;;;;;56.35;43.28;;;7.20;99.90;;;;;;5061024;28;20083;-79
2022/03/24 01:47:07;;;;;;;61.25;45.65;;;7.20;99.90;;;;;;5080232;28;20392;-79
2022/03/24 01:49:38;;;;;;;58.38;45.53;;;7.20;99.90;;;;;;5065025;28;20037;-79
2022/03/24 01:52:10;;;;;;;61.83;46.05;;;7.20;99.90;;;;;;5068677;28;20079;-80
2022/03/24 01:54:40;;;;;;;62.70;45.38;;;7.10;99.90;;;;;;5067264;28;20055;-80
2022/03/24 01:57:07;;;;;;;60.28;46.25;;;7.10;99.90;;;;;;5063173;28;20098;-80
2022/03/24 01:59:34;;;;;;;59.10;47.00;;;7.10;99.90;;;;;;5049829;28;20128;-80
2022/03/24 02:02:00;;;;;;;64.07;47.90;;;7.00;99.90;;;;;;5092935;28;20080;-79
2022/03/24 02:04:25;;;;;;;61.60;47.67;;;7.90;99.90;;;;;;5066546;28;20079;-79
2022/03/24 02:06:51;;;;;;;60.90;46.35;;;7.00;99.90;;;;;;5066030;28;20411;-80
2022/03/24 02:09:17;;;;;;;63.60;47.00;;;7.00;99.90;;;;;;5049215;28;20040;-80
2022/03/24 02:11:43;;;;;;;63.63;46.42;;;6.90;99.90;;;;;;5066230;28;20044;-82
2022/03/24 02:14:09;;;;;;;66.75;47.95;;;6.90;99.90;;;;;;5046553;28;20040;-79
2022/03/24 02:16:38;;;;;;;60.25;46.45;;;6.90;99.90;;;;;;5057885;28;20050;-79
2022/03/24 02:19:21;;;;;;;66.20;48.55;;;6.90;99.90;;;;;;5047019;28;20047;-80
2022/03/24 02:21:48;;;;;;;61.55;46.85;;;8.60;99.90;;;;;;5049064;28;20036;-80
2022/03/24 02:24:17;;;;;;;63.28;47.53;;;6.80;99.90;;;;;;5064214;28;20052;-80
2022/03/24 02:26:44;;;;;;;60.15;46.15;;;8.50;99.90;;;;;;5065740;28;20131;-80
2022/03/24 02:29:15;;;;;;;60.85;45.63;;;6.80;99.90;;;;;;5060052;28;20032;-80
2022/03/24 02:31:43;;;;;;;64.63;47.50;;;6.80;99.90;;;;;;5062997;28;20048;-80
2022/03/24 02:36:56;;;;;;;65.53;48.38;;;6.70;99.90;;;;;;5061034;28;20049;-79
2022/03/24 02:39:22;;;;;;;64.38;46.90;;;6.70;99.90;;;;;;5057228;28;20048;-80
2022/03/24 02:41:52;;;;;;;60.25;46.35;;;7.10;99.90;;;;;;5066781;28;20045;-80
2022/03/24 02:44:23;;;;;;;58.92;45.85;;;6.70;99.90;;;;;;5043418;28;20049;-80
2022/03/24 02:46:51;;;;;;;59.85;46.40;;;8.20;99.90;;;;;;5057014;28;20493;-80
2022/03/24 02:49:19;;;;;;;62.38;46.85;;;6.80;99.90;;;;;;5048013;28;20402;-81
2022/03/24 02:51:46;;;;;;;63.67;47.95;;;6.70;99.90;;;;;;5067726;28;20134;-79
2022/03/24 02:54:12;;;;;;;64.00;47.40;;;6.60;99.90;;;;;;5060951;28;20036;-80
2022/03/24 02:56:38;;;;;;;65.95;49.33;;;6.60;99.90;;;;;;5065747;28;20051;-80
2022/03/24 02:59:05;;;;;;;64.68;48.63;;;6.50;99.90;;;;;;5064982;28;20040;-80
2022/03/24 03:01:33;;;;;;;65.35;48.58;;;6.50;99.90;;;;;;5063421;28;20044;-81
2022/03/24 03:03:59;;;;;;;69.90;50.05;;;6.40;99.90;;;;;;5057448;28;20166;-80
2022/03/24 03:06:26;;;;;;;62.70;47.65;;;6.40;99.90;;;;;;5066803;28;20093;-80
2022/03/24 03:08:52;;;;;;;62.92;48.38;;;6.40;99.90;;;;;;5065433;28;20045;-80
2022/03/24 03:11:22;;;;;;;59.35;46.78;;;6.40;99.90;;;;;;5066657;28;20388;-79
2022/03/24 03:13:48;;;;;;;62.25;47.42;;;6.30;99.90;;;;;;5059869;28;20044;-79
2022/03/24 03:16:14;;;;;;;66.40;47.90;;;6.30;99.90;;;;;;5067027;28;20033;-79
2022/03/24 03:18:41;;;;;;;64.57;49.22;;;6.30;99.90;;;;;;5061923;28;20385;-79
2022/03/24 03:21:09;;;;;;;63.83;47.42;;;6.10;99.90;;;;;;5046419;28;20107;-79
2022/03/24 03:23:37;;;;;;;65.13;49.90;;;6.10;99.90;;;;;;5064055;28;20532;-79
2022/03/24 03:26:03;;;;;;;62.42;47.58;;;6.10;99.90;;;;;;5064491;28;20051;-79
2022/03/24 03:28:28;;;;;;;61.55;47.08;;;6.10;99.90;;;;;;5063460;28;20044;-80
2022/03/24 03:30:54;;;;;;;65.00;49.67;;;6.10;99.90;;;;;;5067461;28;20568;-80
2022/03/24 03:33:19;;;;;;;68.30;49.88;;;7.30;99.90;;;;;;5043168;28;20412;-79
2022/03/24 03:35:45;;;;;;;67.55;48.80;;;5.90;99.90;;;;;;5057584;28;20048;-80
2022/03/24 03:38:11;;;;;;;68.45;49.55;;;5.90;99.90;;;;;;5054472;28;20067;-80
2022/03/24 03:40:37;;;;;;;68.40;48.72;;;5.90;99.90;;;;;;5062485;28;20503;-80
2022/03/24 03:43:02;;;;;;;70.75;52.40;;;5.90;99.90;;;;;;5063387;28;20033;-80
2022/03/24 03:45:28;;;;;;;67.10;48.33;;;5.90;99.90;;;;;;5042705;28;20052;-80
2022/03/24 03:47:54;;;;;;;69.20;51.67;;;5.90;99.90;;;;;;5064879;28;20106;-79
2022/03/24 03:50:19;;;;;;;73.45;51.38;;;5.90;99.90;;;;;;5045253;28;20060;-79
2022/03/24 03:52:45;;;;;;;79.20;52.13;;;5.90;99.90;;;;;;5062588;28;20128;-79
2022/03/24 03:55:11;;;;;;;70.43;50.47;;;5.80;99.90;;;;;;5065684;28;20078;-81
2022/03/24 03:57:36;;;;;;;76.18;51.97;;;5.80;99.90;;;;;;5066803;28;20045;-80
2022/03/24 04:00:52;;;;;;;72.72;52.03;;;5.80;99.90;;;;;;5062501;28;20058;-80
2022/03/24 04:02:51;;;;;;;72.60;53.40;;;5.80;99.90;;;;;;5060305;28;20053;-81
2022/03/24 04:05:23;;;;;;;71.57;51.78;;;7.20;99.90;;;;;;5063902;28;20041;-80
2022/03/24 04:07:49;;;;;;;70.93;49.63;;;5.70;99.90;;;;;;5043216;28;20494;-80
2022/03/24 04:10:15;;;;;;;72.47;52.03;;;7.00;99.90;;;;;;5064416;28;20037;-80
2022/03/24 04:12:43;;;;;;;74.00;52.67;;;5.70;99.90;;;;;;5059046;28;20091;-81
2022/03/24 04:15:09;;;;;;;70.07;50.28;;;5.60;99.90;;;;;;5036002;28;20068;-81
2022/03/24 04:17:35;;;;;;;69.55;50.95;;;5.70;99.90;;;;;;5041060;28;20047;-81
2022/03/24 04:20:00;;;;;;;72.65;50.47;;;5.60;99.90;;;;;;5046286;28;20399;-81
2022/03/24 04:22:26;;;;;;;70.97;53.10;;;7.40;99.90;;;;;;5060212;28;20127;-79
2022/03/24 04:24:52;;;;;;;71.03;51.65;;;5.60;99.90;;;;;;5032639;28;20045;-80
2022/03/24 04:27:17;;;;;;;74.30;51.45;;;5.60;99.90;;;;;;5063942;28;20024;-80
2022/03/24 04:29:43;;;;;;;71.07;52.72;;;5.60;99.90;;;;;;5058646;28;20515;-81
2022/03/24 04:32:09;;;;;;;70.30;50.15;;;5.50;99.90;;;;;;5047217;28;20048;-81
2022/03/24 04:34:34;;;;;;;75.18;51.65;;;5.40;99.90;;;;;;5061057;28;20369;-81
2022/03/24 04:37:00;;;;;;;72.03;50.40;;;5.50;99.90;;;;;;5054590;28;20057;-80
2022/03/24 04:39:26;;;;;;;71.78;52.28;;;5.50;99.90;;;;;;5045428;28;20496;-80
2022/03/24 04:41:51;;;;;;;73.70;51.25;;;5.50;99.90;;;;;;5064915;28;20052;-80
2022/03/24 04:44:17;;;;;;;70.40;49.65;;;5.50;99.90;;;;;;5057333;28;20044;-79
2022/03/24 04:46:43;;;;;;;67.47;48.53;;;5.50;99.90;;;;;;5046614;28;20110;-80
2022/03/24 04:49:09;;;;;;;72.40;51.50;;;5.40;99.90;;;;;;5064303;28;20044;-79
2022/03/24 04:51:34;;;;;;;75.57;52.05;;;5.50;99.90;;;;;;5055455;28;20041;-80
2022/03/24 04:54:00;;;;;;;73.15;50.50;;;5.50;99.90;;;;;;5052294;28;20045;-80
2022/03/24 04:56:26;;;;;;;71.40;49.78;;;5.50;99.90;;;;;;5063235;28;20075;-80
2022/03/24 04:58:52;;;;;;;70.55;50.33;;;5.40;99.90;;;;;;5061209;28;20737;-80
2022/03/24 05:01:17;;;;;;;75.75;51.50;;;5.50;99.90;;;;;;5067182;28;20041;-79
2022/03/24 05:03:46;;;;;;;68.43;49.72;;;5.40;99.90;;;;;;5055396;28;20052;-79
2022/03/24 05:06:13;;;;;;;82.82;50.85;;;5.40;99.90;;;;;;5060587;28;20106;-79
2022/03/24 05:08:38;;;;;;;70.00;50.25;;;5.40;99.90;;;;;;5060611;28;20039;-79
2022/03/24 05:11:04;;;;;;;68.43;50.70;;;5.40;99.90;;;;;;5052333;28;20048;-79
2022/03/24 05:13:29;;;;;;;67.60;49.42;;;5.40;99.90;;;;;;5051634;28;20044;-79
2022/03/24 05:15:57;;;;;;;67.97;49.25;;;5.40;99.90;;;;;;5051085;28;20045;-79
2022/03/24 05:18:26;;;;;;;73.35;50.47;;;5.40;99.90;;;;;;5060346;28;20125;-78
2022/03/24 05:20:52;;;;;;;67.18;48.67;;;5.30;99.90;;;;;;5063281;28;20495;-78
2022/03/24 05:23:18;;;;;;;71.28;51.53;;;5.30;99.90;;;;;;5065064;28;20392;-78
2022/03/24 05:25:47;;;;;;;71.90;49.72;;;5.30;99.90;;;;;;5061116;28;20078;-78
2022/03/24 05:28:13;;;;;;;74.43;50.53;;;5.20;99.90;;;;;;5056338;28;20049;-80
2022/03/24 05:30:39;;;;;;;67.72;48.05;;;5.20;99.90;;;;;;5058875;28;20417;-79
2022/03/24 05:33:05;;;;;;;70.18;49.33;;;5.20;99.90;;;;;;5055364;28;20051;-78
2022/03/24 05:35:35;;;;;;;67.60;49.67;;;5.20;99.90;;;;;;5050603;28;20051;-81
2022/03/24 05:38:03;;;;;;;68.88;49.45;;;5.20;99.90;;;;;;5039469;28;20547;-79
2022/03/24 05:40:28;;;;;;;67.57;48.80;;;5.20;99.90;;;;;;5053720;28;20045;-78
2022/03/24 05:42:54;;;;;;;68.40;47.83;;;5.20;99.90;;;;;;5055684;28;20059;-79
2022/03/24 05:45:20;;;;;;;70.10;46.70;;;5.00;99.90;;;;;;4704660;28;10000585;-79
2022/03/24 05:47:46;;;;;;;64.32;47.17;;;7.10;99.90;;;;;;5046135;28;20614;-79
2022/03/24 05:50:12;;;;;;;65.75;47.40;;;5.10;99.90;;;;;;5060863;28;20052;-79
2022/03/24 05:52:38;;;;;;;67.43;48.53;;;5.10;99.90;;;;;;5059382;28;20070;-78
2022/03/24 05:55:04;;;;;;;65.35;48.13;;;5.50;99.90;;;;;;5059354;28;20134;-81
2022/03/24 05:57:30;;;;;;;69.68;48.30;;;5.10;99.90;;;;;;5041955;28;20049;-79
2022/03/24 05:59:55;;;;;;;65.93;47.03;;;5.00;99.90;;;;;;5055693;28;20055;-80
2022/03/24 06:02:21;;;;;;;63.78;46.42;;;5.20;99.90;;;;;;5054295;28;20543;-79
2022/03/24 06:04:48;;;;;;;70.15;47.13;;;5.00;99.90;;;;;;5051819;28;20082;-79
2022/03/24 06:07:14;;;;;;;64.90;46.95;;;5.20;99.90;;;;;;5068699;28;20041;-79
2022/03/24 06:09:41;;;;;;;67.43;46.05;;;3.90;99.90;;;;;;5049428;28;20029;-80
2022/03/24 06:12:08;;;;;;;63.75;44.55;;;7.00;99.90;;;;;;5042797;28;20071;-81
2022/03/24 06:14:36;;;;;;;63.58;43.90;;;5.20;99.90;;;;;;5059379;28;20532;-84
2022/03/24 06:17:02;;;;;;;62.28;45.78;;;5.20;99.90;;;;;;5062667;28;20036;-81
2022/03/24 06:19:28;;;;;;;59.13;41.17;;;5.30;99.90;;;;;;5065565;28;20076;-79
2022/03/24 06:21:53;;;;;;;56.65;43.55;;;5.50;99.90;;;;;;5041072;28;20553;-80
2022/03/24 06:24:19;;;;;;;58.13;42.13;;;5.20;99.90;;;;;;5044256;28;20044;-81
2022/03/24 06:26:45;;;;;;;58.92;43.15;;;7.10;99.90;;;;;;5064550;28;20048;-79
2022/03/24 06:29:13;;;;;;;53.78;42.22;;;5.20;99.90;;;;;;5067980;28;20133;-79
2022/03/24 06:31:40;;;;;;;56.13;41.53;;;5.30;99.90;;;;;;5070628;28;20385;-79
2022/03/24 06:34:05;;;;;;;61.90;43.47;;;6.70;99.90;;;;;;5060151;28;20489;-79
2022/03/24 06:36:31;;;;;;;65.32;47.63;;;5.40;99.90;;;;;;5070167;28;20040;-79
2022/03/24 06:38:56;;;;;;;70.72;48.40;;;6.60;99.90;;;;;;5068060;28;20044;-79
2022/03/24 06:41:22;;;;;;;153.15;103.72;;;5.30;99.90;;;;;;5055237;28;20041;-79
2022/03/24 06:43:48;;;;;;;79.80;56.67;;;5.40;99.90;;;;;;5063608;28;20502;-80
2022/03/24 06:46:14;;;;;;;69.22;48.22;;;5.50;99.90;;;;;;5068796;28;20062;-80
2022/03/24 06:48:40;;;;;;;72.05;49.05;;;5.50;99.90;;;;;;5062495;28;20037;-80
2022/03/24 06:51:06;;;;;;;67.63;48.78;;;5.50;99.90;;;;;;5063487;28;20077;-80
2022/03/24 06:53:32;;;;;;;67.80;47.88;;;5.60;99.90;;;;;;5061801;28;20048;-80
2022/03/24 06:55:58;;;;;;;65.72;47.80;;;5.60;99.90;;;;;;5066068;28;20098;-79
2022/03/24 06:58:25;;;;;;;65.95;47.42;;;5.70;99.90;;;;;;5064350;28;20279;-81
2022/03/24 07:00:51;;;;;;;69.72;48.58;;;5.70;99.90;;;;;;5069445;28;20572;-81
2022/03/24 07:03:16;;;;;;;70.45;48.70;;;5.70;99.90;;;;;;5043822;28;20127;-82
2022/03/24 07:05:42;;;;;;;66.18;48.13;;;5.80;99.90;;;;;;5066147;28;20048;-84
2022/03/24 07:08:09;;;;;;;64.93;46.67;;;5.80;99.90;;;;;;5064337;28;20132;-83
2022/03/24 07:10:35;;;;;;;70.07;48.72;;;5.90;99.90;;;;;;5066887;28;20092;-83
2022/03/24 07:13:01;;;;;;;67.68;49.53;;;5.90;99.90;;;;;;5045133;28;20127;-79
2022/03/24 07:15:26;;;;;;;72.05;49.28;;;6.00;99.90;;;;;;5060307;28;20123;-79
2022/03/24 07:17:52;;;;;;;69.45;52.17;;;6.00;99.90;;;;;;5047467;28;20494;-81
2022/03/24 07:20:18;;;;;;;68.20;50.22;;;6.00;99.90;;;;;;5061591;28;20131;-80
2022/03/24 07:22:45;;;;;;;73.47;52.05;;;6.10;99.90;;;;;;5065986;28;20544;-80
2022/03/24 07:25:11;;;;;;;82.85;55.38;;;6.20;99.90;;;;;;5068540;28;20424;-79
2022/03/24 07:27:37;;;;;;;77.00;56.00;;;6.20;99.90;;;;;;5049151;28;20044;-79
2022/03/24 07:30:04;;;;;;;84.22;59.42;;;6.30;99.90;;;;;;5063413;28;20049;-80
2022/03/24 07:32:30;;;;;;;106.30;71.97;;;6.40;99.90;;;;;;5047755;28;20071;-80
2022/03/24 07:34:56;;;;;;;94.93;64.35;;;6.40;99.90;;;;;;5050519;28;20058;-78
2022/03/24 07:37:21;;;;;;;94.18;62.30;;;6.50;99.90;;;;;;5049171;28;20132;-79
2022/03/24 07:39:47;;;;;;;87.63;60.58;;;6.50;99.90;;;;;;5060500;28;20032;-80
2022/03/24 07:42:14;;;;;;;83.57;57.42;;;6.60;99.90;;;;;;5038169;28;20550;-79
2022/03/24 07:44:40;;;;;;;77.80;58.63;;;8.70;99.90;;;;;;5059786;28;20063;-80
2022/03/24 07:47:06;;;;;;;84.82;59.28;;;6.80;99.90;;;;;;5065007;28;20524;-79
2022/03/24 07:49:32;;;;;;;88.38;62.75;;;6.90;99.90;;;;;;5066152;28;20036;-81
2022/03/24 07:51:58;;;;;;;83.13;59.70;;;7.00;99.90;;;;;;5059541;28;20085;-79
2022/03/24 07:54:48;;;;;;;81.18;59.92;;;7.00;99.90;;;;;;5065254;28;20110;-83
2022/03/24 07:57:14;;;;;;;84.25;60.42;;;7.10;99.90;;;;;;5061120;28;20507;-83
2022/03/24 07:59:39;;;;;;;87.45;60.17;;;7.20;99.90;;;;;;5047747;28;20512;-83
2022/03/24 08:02:07;;;;;;;86.05;60.67;;;7.30;99.90;;;;;;5042860;28;20039;-80
2022/03/24 08:04:32;;;;;;;82.50;62.47;;;7.40;99.90;;;;;;5063482;28;20476;-81
2022/03/24 08:06:58;;;;;;;80.38;58.28;;;7.40;99.90;;;;;;5062805;28;20132;-80
2022/03/24 08:09:24;;;;;;;81.97;59.15;;;7.60;99.90;;;;;;5062687;28;20091;-80
2022/03/24 08:11:49;;;;;;;75.05;56.88;;;7.70;99.90;;;;;;5062766;28;20087;-80
2022/03/24 08:14:15;;;;;;;80.78;55.55;;;7.80;99.90;;;;;;5052258;28;20040;-83
2022/03/24 08:16:41;;;;;;;80.22;55.78;;;7.90;99.90;;;;;;5055927;28;20081;-82
2022/03/24 08:19:07;;;;;;;96.35;63.33;;;8.00;99.90;;;;;;5057965;28;20446;-81
2022/03/24 08:21:32;;;;;;;76.32;57.33;;;8.00;99.90;;;;;;5058634;28;20047;-83
2022/03/24 08:23:58;;;;;;;86.78;60.63;;;8.10;99.90;;;;;;5058008;28;20351;-83
2022/03/24 08:26:23;;;;;;;80.28;59.25;;;8.20;99.90;;;;;;5058242;28;20048;-85
2022/03/24 08:28:49;;;;;;;80.32;57.17;;;8.30;99.90;;;;;;5065075;28;20093;-81
2022/03/24 08:31:14;;;;;;;78.32;56.20;;;8.40;99.90;;;;;;5066708;28;20056;-79
2022/03/24 08:33:40;;;;;;;75.07;55.78;;;8.60;99.90;;;;;;5068135;28;20380;-80
2022/03/24 08:36:05;;;;;;;76.13;56.28;;;8.70;99.90;;;;;;5072881;28;20123;-79
2022/03/24 08:38:31;;;;;;;78.38;54.30;;;8.80;99.90;;;;;;5069749;28;20036;-80
2022/03/24 08:40:57;;;;;;;76.85;52.53;;;8.90;99.90;;;;;;5066865;28;20149;-79
2022/03/24 08:43:22;;;;;;;74.10;54.17;;;8.90;99.90;;;;;;5049122;28;20052;-80
2022/03/24 08:45:48;;;;;;;71.88;50.85;;;9.00;99.90;;;;;;5068636;28;20040;-79
2022/03/24 08:48:13;;;;;;;70.63;52.78;;;9.00;99.90;;;;;;5067301;28;20488;-81
2022/03/24 08:50:39;;;;;;;71.05;53.22;;;9.20;99.90;;;;;;5050586;28;20063;-79
2022/03/24 08:53:05;;;;;;;70.95;50.30;;;9.30;99.90;;;;;;5067620;28;20044;-81
2022/03/24 08:55:31;;;;;;;70.50;52.15;;;9.40;99.90;;;;;;5068050;28;20101;-80
2022/03/24 08:57:56;;;;;;;71.47;52.63;;;9.40;99.90;;;;;;5049792;28;20052;-79
2022/03/24 09:00:23;;;;;;;67.22;50.00;;;9.50;99.90;;;;;;5050323;28;20064;-82
2022/03/24 09:02:50;;;;;;;73.00;53.40;;;9.60;99.90;;;;;;5066018;28;20036;-79
2022/03/24 09:05:16;;;;;;;69.55;52.60;;;9.60;99.90;;;;;;5066770;28;20045;-82
2022/03/24 09:07:42;;;;;;;71.93;49.95;;;9.70;99.90;;;;;;5074871;28;20044;-80
2022/03/24 09:10:10;;;;;;;69.95;52.28;;;9.80;99.90;;;;;;5065720;28;20045;-79
2022/03/24 09:12:38;;;;;;;70.70;51.67;;;9.90;99.90;;;;;;5066882;28;20037;-82
2022/03/24 09:15:05;;;;;;;72.53;50.38;;;10.00;99.90;;;;;;5049489;28;20836;-80
2022/03/24 09:17:32;;;;;;;71.30;50.50;;;10.10;99.90;;;;;;5066306;28;20045;-80
2022/03/24 09:19:58;;;;;;;73.13;49.47;;;10.10;99.90;;;;;;5066209;28;20056;-80
2022/03/24 09:22:24;;;;;;;64.55;46.50;;;10.20;99.90;;;;;;5050105;28;20040;-80
2022/03/24 09:24:50;;;;;;;66.63;48.60;;;10.30;99.90;;;;;;5066295;28;20440;-80
2022/03/24 09:27:15;;;;;;;66.32;47.35;;;10.40;99.90;;;;;;5057054;28;20044;-81
2022/03/24 09:29:42;;;;;;;68.28;46.50;;;10.50;99.90;;;;;;5066783;28;20056;-80
2022/03/24 09:32:12;;;;;;;64.72;46.15;;;10.50;99.90;;;;;;5066287;28;20060;-79
2022/03/24 09:34:39;;;;;;;66.40;47.92;;;10.70;99.90;;;;;;5070696;28;20525;-80
2022/03/24 09:37:04;;;;;;;70.68;47.67;;;12.10;99.90;;;;;;5070375;28;20072;-81
2022/03/24 09:39:30;;;;;;;64.15;46.20;;;10.80;99.90;;;;;;5069709;28;20037;-80
2022/03/24 09:41:57;;;;;;;65.07;46.55;;;10.90;99.90;;;;;;5070095;28;20109;-83
2022/03/24 09:44:24;;;;;;;63.42;45.90;;;11.00;99.90;;;;;;5053274;28;20097;-80
2022/03/24 09:46:50;;;;;;;62.28;44.15;;;11.10;99.90;;;;;;5053421;28;20044;-81
2022/03/24 09:49:15;;;;;;;62.15;43.85;;;11.20;99.90;;;;;;5071139;28;20055;-80
2022/03/24 09:51:43;;;;;;;56.60;42.60;;;11.30;99.90;;;;;;5069493;28;20091;-80
2022/03/24 09:54:11;;;;;;;57.70;43.38;;;11.40;99.90;;;;;;5070877;28;20232;-80
2022/03/24 09:56:37;;;;;;;56.13;42.03;;;11.50;99.90;;;;;;5071671;28;20078;-80
2022/03/24 09:59:04;;;;;;;62.13;43.85;;;11.60;99.90;;;;;;5053631;28;20394;-81
2022/03/24 10:01:30;;;;;;;63.40;43.78;;;11.70;99.90;;;;;;5071442;28;20556;-80
2022/03/24 10:04:14;;;;;;;62.10;42.47;;;11.80;99.90;;;;;;5070965;28;20051;-80
2022/03/24 10:07:00;;;;;;;54.00;40.22;;;11.90;99.90;;;;;;5058473;28;20472;-81
2022/03/24 10:09:47;;;;;;;57.05;41.50;;;12.00;99.90;;;;;;5069595;28;20040;-80
2022/03/24 10:12:34;;;;;;;58.03;44.13;;;12.10;99.90;;;;;;5052868;28;20446;-80
2022/03/24 10:15:04;;;;;;;59.30;43.13;;;12.30;99.90;;;;;;5063389;28;20049;-80
2022/03/24 10:17:31;;;;;;;58.95;43.25;;;12.30;99.90;;;;;;5059021;28;20037;-80
2022/03/24 10:20:15;;;;;;;64.18;44.65;;;12.40;99.90;;;;;;5068867;28;20071;-82
2022/03/24 10:22:53;;;;;;;58.08;41.80;;;12.50;99.90;;;;;;5066587;28;20455;-80
2022/03/24 10:25:21;;;;;;;57.40;42.67;;;12.50;99.90;;;;;;5052823;28;20048;-79
2022/03/24 10:27:50;;;;;;;56.60;44.85;;;12.70;99.90;;;;;;5070177;28;20124;-80
2022/03/24 10:30:16;;;;;;;59.63;44.90;;;12.70;99.90;;;;;;5070351;28;20508;-81
2022/03/24 10:32:56;;;;;;;59.85;45.33;;;12.90;99.90;;;;;;5069187;28;20049;-83
2022/03/24 10:35:22;;;;;;;60.42;44.45;;;13.00;99.90;;;;;;5052244;28;20036;-80
2022/03/24 10:37:52;;;;;;;57.95;41.88;;;13.00;99.90;;;;;;5069224;28;20052;-80
2022/03/24 10:40:18;;;;;;;63.58;45.30;;;13.20;99.90;;;;;;5069269;28;20052;-82
2022/03/24 10:42:44;;;;;;;61.95;46.15;;;13.30;99.90;;;;;;5069088;28;20047;-80
2022/03/24 10:45:22;;;;;;;56.40;44.47;;;13.40;99.90;;;;;;5067946;28;20037;-82
2022/03/24 10:47:47;;;;;;;58.63;41.75;;;13.50;99.90;;;;;;5069870;28;20476;-80
2022/03/24 10:50:21;;;;;;;57.85;41.05;;;13.50;99.90;;;;;;5069165;28;20119;-81
2022/03/24 10:52:48;;;;;;;43.83;31.67;;;13.60;99.90;;;;;;5069901;28;20048;-80
2022/03/24 10:55:32;;;;;;;53.35;35.65;;;13.80;99.90;;;;;;5068268;28;20037;-80
2022/03/24 10:57:58;;;;;;;55.60;37.15;;;14.00;99.90;;;;;;5061483;28;20075;-80
2022/03/24 11:00:24;;;;;;;50.60;36.20;;;14.10;99.90;;;;;;5068479;28;20040;-83
2022/03/24 11:02:50;;;;;;;55.67;39.95;;;14.30;99.90;;;;;;5068597;28;20045;-81
2022/03/24 11:05:16;;;;;;;51.65;40.05;;;14.40;99.90;;;;;;5068806;28;20089;-81
2022/03/24 11:07:51;;;;;;;51.67;39.88;;;14.50;99.90;;;;;;5070661;28;20036;-80
2022/03/24 11:10:17;;;;;;;57.17;39.60;;;14.70;99.90;;;;;;5051404;28;20036;-80
2022/03/24 11:12:43;;;;;;;46.80;37.22;;;14.80;99.90;;;;;;5069969;28;20068;-80
2022/03/24 11:15:10;;;;;;;46.67;36.55;;;14.80;99.90;;;;;;5070295;28;20072;-80
2022/03/24 11:17:38;;;;;;;54.90;34.78;;;15.00;99.90;;;;;;5067919;28;20037;-81
2022/03/24 11:20:29;;;;;;;48.95;33.88;;;15.10;99.90;;;;;;5070014;28;20044;-80
2022/03/24 11:23:09;;;;;;;46.60;33.13;;;15.20;99.10;;;;;;5074799;28;20140;-80
2022/03/24 11:25:35;;;;;;;51.13;36.90;;;15.20;99.00;;;;;;5046232;28;20076;-80
2022/03/24 11:28:11;;;;;;;44.08;34.42;;;15.40;98.80;;;;;;5069547;28;20503;-80
2022/03/24 11:30:37;;;;;;;50.47;35.33;;;15.60;97.80;;;;;;5067767;28;20089;-80
2022/03/24 11:33:04;;;;;;;44.10;32.50;;;15.70;97.50;;;;;;5067080;28;20075;-82
2022/03/24 11:35:34;;;;;;;46.55;34.60;;;15.80;97.10;;;;;;5068039;28;20052;-81
2022/03/24 11:38:02;;;;;;;47.67;34.92;;;15.90;96.90;;;;;;5066951;28;20047;-81
2022/03/24 11:40:31;;;;;;;57.40;40.55;;;16.10;96.60;;;;;;5068532;28;20047;-81
2022/03/24 11:43:00;;;;;;;44.28;35.83;;;16.30;96.50;;;;;;5051145;28;20052;-81
2022/03/24 11:45:48;;;;;;;46.35;36.00;;;16.30;96.30;;;;;;5067430;28;20471;-81
2022/03/24 11:48:16;;;;;;;45.75;35.15;;;16.40;95.80;;;;;;5062282;28;20036;-81
2022/03/24 11:50:41;;;;;;;48.35;35.60;;;16.50;95.50;;;;;;5068322;28;20044;-83
2022/03/24 11:53:09;;;;;;;50.50;34.92;;;16.60;95.40;;;;;;5067997;28;20098;-81
2022/03/24 11:55:37;;;;;;;52.50;36.80;;;16.70;95.00;;;;;;5067636;28;20062;-82
2022/03/24 11:58:04;;;;;;;56.78;39.70;;;16.80;94.90;;;;;;5068156;28;20044;-81
2022/03/24 12:00:30;;;;;;;46.88;37.50;;;16.80;94.80;;;;;;5068437;28;20094;-81
2022/03/24 12:03:01;;;;;;;45.92;36.35;;;17.00;94.40;;;;;;5067025;28;20072;-82
2022/03/24 12:05:48;;;;;;;51.90;38.10;;;17.10;93.70;;;;;;5066950;28;20041;-81
2022/03/24 12:08:14;;;;;;;50.83;38.97;;;17.10;92.70;;;;;;5060455;28;20233;-82
2022/03/24 12:10:40;;;;;;;50.17;38.45;;;17.10;92.70;;;;;;5067419;28;20135;-81
2022/03/24 12:13:21;;;;;;;46.63;37.83;;;17.20;92.90;;;;;;5066100;28;20119;-82
2022/03/24 12:16:12;;;;;;;51.95;38.30;;;17.30;92.80;;;;;;5067319;28;20049;-82
2022/03/24 12:18:44;;;;;;;51.28;40.53;;;17.30;92.60;;;;;;5067828;28;20080;-81
2022/03/24 12:21:20;;;;;;;53.88;40.85;;;17.40;92.40;;;;;;5075502;28;20476;-82
2022/03/24 12:24:08;;;;;;;49.33;38.47;;;17.50;92.30;;;;;;5066583;28;20396;-82
2022/03/24 12:26:56;;;;;;;49.13;37.15;;;17.60;92.10;;;;;;5067993;28;20056;-82
2022/03/24 12:29:24;;;;;;;48.65;36.10;;;17.70;92.00;;;;;;5065974;28;20075;-83
2022/03/24 12:32:11;;;;;;;47.85;36.10;;;17.70;91.30;;;;;;5073025;28;20052;-82
2022/03/24 12:34:43;;;;;;;50.65;37.72;;;17.80;91.20;;;;;;5067084;28;20393;-82
2022/03/24 12:37:26;;;;;;;47.13;36.47;;;17.80;90.80;;;;;;5060263;28;20079;-82
2022/03/24 12:40:09;;;;;;;46.90;32.35;;;17.90;90.90;;;;;;5067563;28;20056;-83